OIFK  Kashan  Airport

Iran

Add Bookmark
Status
Operational
Latitude Longitude
33° 53' 43" N 51° 34' 37" E
33.895302 51.577000
Local (DST + 5) UTC (GMT + 4)
Mar 27, 2015 02:57 Mar 26, 2015 22:27
Sunrise-Sunset Local UTC
Begin Civil Twilight 06:31 02:01
Sunrise 06:56 02:26
Sunset 07:21 14:51
End Civil Twilight 07:46 15:16

Current Weather

METAR Observed VFR
OIFK 262200Z 00000KT 9999 SCT040 OVC100 09/08 Q1023 Thu, Mar 26, 2015 @ 22:00 UTC
(27 Minutes ago)
Visual Flight Rules
Wind Visibility Clouds Conditions
Calm 10 km or more
  • Scattered at 4,000' AGL
  • Overcast at 10,000' AGL
  • No significant weather
Temperatures Readings Precipitation
Current Temp 9°C (48°F)
Dewpoint 8°C (46°F)
Humidity 94%
Altimeter 30.21"Hg
Sea Level Pressure 1023mb
Field Elevation 3221.78'
None Recorded

Additional weather within a 185.2km radius of OIFK

Map ICAO Location
OIFM 129.8km S (168°)
OIIE 173.3km N (347°)

24 Hour Weather History

Loading
-

24 Hour Weather Graphs

Loading
-

CheckWX.com is intended as a tool to help pilots better visualize weather data. It is not intended as a substitute for an official weather briefing obtained from a Flight Service Station. CheckWX.com does not meet the FAA requirements for an official pre-flight weather briefing. Therefore, it's important that pilots still call and obtain an official FSS pre-flight weather briefing.